sensor_id;sensor_type;location;lat;lon;timestamp;temperature;humidity
39665;DHT22;26679;50.872;4.332;2024-03-17T00:00:42;21.50;73.40
39665;DHT22;26679;50.872;4.332;2024-03-17T00:03:07;21.50;73.40
39665;DHT22;26679;50.872;4.332;2024-03-17T00:05:37;21.40;73.30
39665;DHT22;26679;50.872;4.332;2024-03-17T00:08:03;21.40;73.90
39665;DHT22;26679;50.872;4.332;2024-03-17T00:10:30;21.40;73.30
39665;DHT22;26679;50.872;4.332;2024-03-17T00:12:56;21.40;73.30
39665;DHT22;26679;50.872;4.332;2024-03-17T00:15:22;21.40;73.30
39665;DHT22;26679;50.872;4.332;2024-03-17T00:17:48;21.40;73.30
39665;DHT22;26679;50.872;4.332;2024-03-17T00:20:13;21.30;73.20
39665;DHT22;26679;50.872;4.332;2024-03-17T00:22:45;21.30;73.20
39665;DHT22;26679;50.872;4.332;2024-03-17T00:25:11;21.30;73.20
39665;DHT22;26679;50.872;4.332;2024-03-17T00:27:36;21.30;73.10
39665;DHT22;26679;50.872;4.332;2024-03-17T00:30:05;21.30;73.10
39665;DHT22;26679;50.872;4.332;2024-03-17T00:32:35;21.30;73.10
39665;DHT22;26679;50.872;4.332;2024-03-17T00:35:01;21.20;73.10
39665;DHT22;26679;50.872;4.332;2024-03-17T00:37:26;21.20;73.10
39665;DHT22;26679;50.872;4.332;2024-03-17T00:39:52;21.20;73.10
39665;DHT22;26679;50.872;4.332;2024-03-17T00:42:17;21.20;73.10
39665;DHT22;26679;50.872;4.332;2024-03-17T00:44:44;21.20;73.10
39665;DHT22;26679;50.872;4.332;2024-03-17T00:47:09;21.20;73.00
39665;DHT22;26679;50.872;4.332;2024-03-17T00:49:35;21.20;73.00
39665;DHT22;26679;50.872;4.332;2024-03-17T00:52:00;21.20;73.00
39665;DHT22;26679;50.872;4.332;2024-03-17T00:54:26;21.10;72.90
39665;DHT22;26679;50.872;4.332;2024-03-17T00:56:51;21.10;72.90
39665;DHT22;26679;50.872;4.332;2024-03-17T00:59:17;21.10;72.90
39665;DHT22;26679;50.872;4.332;2024-03-17T01:01:42;21.10;72.90
39665;DHT22;26679;50.872;4.332;2024-03-17T01:04:09;21.10;72.90
39665;DHT22;26679;50.872;4.332;2024-03-17T01:06:34;21.00;72.80
39665;DHT22;26679;50.872;4.332;2024-03-17T01:09:00;21.00;72.70
39665;DHT22;26679;50.872;4.332;2024-03-17T01:11:25;21.00;72.70
39665;DHT22;26679;50.872;4.332;2024-03-17T01:13:51;21.00;72.70
39665;DHT22;26679;50.872;4.332;2024-03-17T01:16:16;21.00;72.70
39665;DHT22;26679;50.872;4.332;2024-03-17T01:18:42;21.00;72.70
39665;DHT22;26679;50.872;4.332;2024-03-17T01:21:08;21.00;72.60
39665;DHT22;26679;50.872;4.332;2024-03-17T01:23:34;21.10;72.70
39665;DHT22;26679;50.872;4.332;2024-03-17T01:25:59;21.00;72.70
39665;DHT22;26679;50.872;4.332;2024-03-17T01:28:25;21.00;72.70
39665;DHT22;26679;50.872;4.332;2024-03-17T01:30:52;21.00;72.70
39665;DHT22;26679;50.872;4.332;2024-03-17T01:33:17;20.90;72.60
39665;DHT22;26679;50.872;4.332;2024-03-17T01:35:43;20.90;72.60
39665;DHT22;26679;50.872;4.332;2024-03-17T01:38:08;20.90;72.60
39665;DHT22;26679;50.872;4.332;2024-03-17T01:40:35;20.90;72.60
39665;DHT22;26679;50.872;4.332;2024-03-17T01:43:01;20.90;72.60
39665;DHT22;26679;50.872;4.332;2024-03-17T01:45:30;20.90;72.60
39665;DHT22;26679;50.872;4.332;2024-03-17T01:47:57;20.90;72.60
39665;DHT22;26679;50.872;4.332;2024-03-17T01:50:23;20.90;72.60
39665;DHT22;26679;50.872;4.332;2024-03-17T01:52:51;20.80;72.50
39665;DHT22;26679;50.872;4.332;2024-03-17T01:55:17;20.90;72.60
39665;DHT22;26679;50.872;4.332;2024-03-17T01:57:42;20.80;72.60
39665;DHT22;26679;50.872;4.332;2024-03-17T02:00:08;20.80;72.60
39665;DHT22;26679;50.872;4.332;2024-03-17T02:02:36;20.80;72.60
39665;DHT22;26679;50.872;4.332;2024-03-17T02:05:01;20.80;72.50
39665;DHT22;26679;50.872;4.332;2024-03-17T02:07:28;20.80;72.50
39665;DHT22;26679;50.872;4.332;2024-03-17T02:09:55;20.80;72.60
39665;DHT22;26679;50.872;4.332;2024-03-17T02:12:21;20.70;72.50
39665;DHT22;26679;50.872;4.332;2024-03-17T02:14:47;20.80;72.50
39665;DHT22;26679;50.872;4.332;2024-03-17T02:17:12;20.80;72.50
39665;DHT22;26679;50.872;4.332;2024-03-17T02:19:38;20.70;72.50
39665;DHT22;26679;50.872;4.332;2024-03-17T02:22:09;20.70;72.50
39665;DHT22;26679;50.872;4.332;2024-03-17T02:24:35;20.70;72.40
39665;DHT22;26679;50.872;4.332;2024-03-17T02:27:00;20.70;72.50
39665;DHT22;26679;50.872;4.332;2024-03-17T02:29:26;20.70;72.40
39665;DHT22;26679;50.872;4.332;2024-03-17T02:31:52;20.70;72.40
39665;DHT22;26679;50.872;4.332;2024-03-17T02:34:17;20.70;72.40
39665;DHT22;26679;50.872;4.332;2024-03-17T02:36:42;20.70;72.40
39665;DHT22;26679;50.872;4.332;2024-03-17T02:39:08;20.70;72.40
39665;DHT22;26679;50.872;4.332;2024-03-17T02:41:52;20.70;72.40
39665;DHT22;26679;50.872;4.332;2024-03-17T02:44:17;20.60;72.40
39665;DHT22;26679;50.872;4.332;2024-03-17T02:46:43;20.70;72.40
39665;DHT22;26679;50.872;4.332;2024-03-17T02:49:08;20.70;72.40
39665;DHT22;26679;50.872;4.332;2024-03-17T02:51:39;20.70;72.20
39665;DHT22;26679;50.872;4.332;2024-03-17T02:54:05;20.80;72.20
39665;DHT22;26679;50.872;4.332;2024-03-17T02:56:31;20.80;72.10
39665;DHT22;26679;50.872;4.332;2024-03-17T02:58:56;20.90;72.10
39665;DHT22;26679;50.872;4.332;2024-03-17T03:01:22;20.90;72.00
39665;DHT22;26679;50.872;4.332;2024-03-17T03:03:47;20.90;71.90
39665;DHT22;26679;50.872;4.332;2024-03-17T03:06:14;21.00;71.90
39665;DHT22;26679;50.872;4.332;2024-03-17T03:08:40;21.00;72.40
39665;DHT22;26679;50.872;4.332;2024-03-17T03:11:10;21.00;71.80
39665;DHT22;26679;50.872;4.332;2024-03-17T03:13:43;21.00;71.70
39665;DHT22;26679;50.872;4.332;2024-03-17T03:16:09;21.10;71.70
39665;DHT22;26679;50.872;4.332;2024-03-17T03:18:36;21.10;71.70
39665;DHT22;26679;50.872;4.332;2024-03-17T03:21:01;21.10;71.60
39665;DHT22;26679;50.872;4.332;2024-03-17T03:23:27;21.10;71.50
39665;DHT22;26679;50.872;4.332;2024-03-17T03:25:56;21.20;71.50
39665;DHT22;26679;50.872;4.332;2024-03-17T03:28:24;21.20;71.40
39665;DHT22;26679;50.872;4.332;2024-03-17T03:30:50;21.20;71.30
39665;DHT22;26679;50.872;4.332;2024-03-17T03:33:17;21.30;71.30
39665;DHT22;26679;50.872;4.332;2024-03-17T03:35:43;21.30;71.20
39665;DHT22;26679;50.872;4.332;2024-03-17T03:38:08;21.30;71.20
39665;DHT22;26679;50.872;4.332;2024-03-17T03:40:34;21.30;71.10
39665;DHT22;26679;50.872;4.332;2024-03-17T03:42:59;21.30;71.10
39665;DHT22;26679;50.872;4.332;2024-03-17T03:45:25;21.30;71.00
39665;DHT22;26679;50.872;4.332;2024-03-17T03:47:51;21.40;71.00
39665;DHT22;26679;50.872;4.332;2024-03-17T03:50:19;21.40;71.00
39665;DHT22;26679;50.872;4.332;2024-03-17T03:52:44;21.40;70.90
39665;DHT22;26679;50.872;4.332;2024-03-17T03:55:11;21.40;70.90
39665;DHT22;26679;50.872;4.332;2024-03-17T03:57:37;21.40;70.80
39665;DHT22;26679;50.872;4.332;2024-03-17T04:00:03;21.50;70.80
39665;DHT22;26679;50.872;4.332;2024-03-17T04:02:40;21.50;70.80
39665;DHT22;26679;50.872;4.332;2024-03-17T04:05:06;21.50;70.80
39665;DHT22;26679;50.872;4.332;2024-03-17T04:07:32;21.50;70.70
39665;DHT22;26679;50.872;4.332;2024-03-17T04:09:57;21.60;70.70
39665;DHT22;26679;50.872;4.332;2024-03-17T04:12:23;21.60;71.30
39665;DHT22;26679;50.872;4.332;2024-03-17T04:14:49;21.60;70.70
39665;DHT22;26679;50.872;4.332;2024-03-17T04:17:21;21.60;70.70
39665;DHT22;26679;50.872;4.332;2024-03-17T04:19:50;21.60;70.60
39665;DHT22;26679;50.872;4.332;2024-03-17T04:22:16;21.70;70.60
39665;DHT22;26679;50.872;4.332;2024-03-17T04:24:44;21.70;70.60
39665;DHT22;26679;50.872;4.332;2024-03-17T04:27:10;21.70;70.60
39665;DHT22;26679;50.872;4.332;2024-03-17T04:29:35;21.70;70.50
39665;DHT22;26679;50.872;4.332;2024-03-17T04:32:01;21.70;70.50
39665;DHT22;26679;50.872;4.332;2024-03-17T04:34:27;21.80;70.50
39665;DHT22;26679;50.872;4.332;2024-03-17T04:36:52;21.80;70.50
39665;DHT22;26679;50.872;4.332;2024-03-17T04:39:19;21.80;70.50
39665;DHT22;26679;50.872;4.332;2024-03-17T04:41:45;21.80;70.50
39665;DHT22;26679;50.872;4.332;2024-03-17T04:44:10;21.90;70.50
39665;DHT22;26679;50.872;4.332;2024-03-17T04:46:36;21.80;70.40
39665;DHT22;26679;50.872;4.332;2024-03-17T04:49:01;21.90;70.40
39665;DHT22;26679;50.872;4.332;2024-03-17T04:51:29;21.90;70.40
39665;DHT22;26679;50.872;4.332;2024-03-17T04:53:54;21.90;70.40
39665;DHT22;26679;50.872;4.332;2024-03-17T04:56:20;21.90;70.40
39665;DHT22;26679;50.872;4.332;2024-03-17T04:58:45;21.90;70.30
39665;DHT22;26679;50.872;4.332;2024-03-17T05:01:11;21.90;70.30
39665;DHT22;26679;50.872;4.332;2024-03-17T05:03:38;21.90;70.30
39665;DHT22;26679;50.872;4.332;2024-03-17T05:06:04;21.90;70.30
39665;DHT22;26679;50.872;4.332;2024-03-17T05:08:31;22.00;70.30
39665;DHT22;26679;50.872;4.332;2024-03-17T05:11:03;22.00;70.30
39665;DHT22;26679;50.872;4.332;2024-03-17T05:13:32;22.00;70.20
39665;DHT22;26679;50.872;4.332;2024-03-17T05:15:59;22.10;70.20
39665;DHT22;26679;50.872;4.332;2024-03-17T05:18:24;22.10;70.20
39665;DHT22;26679;50.872;4.332;2024-03-17T05:20:58;22.10;70.20
39665;DHT22;26679;50.872;4.332;2024-03-17T05:23:25;22.10;70.20
39665;DHT22;26679;50.872;4.332;2024-03-17T05:25:51;22.10;70.20
39665;DHT22;26679;50.872;4.332;2024-03-17T05:28:17;22.10;70.20
39665;DHT22;26679;50.872;4.332;2024-03-17T05:30:42;22.10;70.10
39665;DHT22;26679;50.872;4.332;2024-03-17T05:33:08;22.10;70.10
39665;DHT22;26679;50.872;4.332;2024-03-17T05:35:33;22.10;70.10
39665;DHT22;26679;50.872;4.332;2024-03-17T05:37:58;22.10;70.10
39665;DHT22;26679;50.872;4.332;2024-03-17T05:40:24;22.10;70.10
39665;DHT22;26679;50.872;4.332;2024-03-17T05:42:49;22.10;70.10
39665;DHT22;26679;50.872;4.332;2024-03-17T05:45:15;22.10;70.60
39665;DHT22;26679;50.872;4.332;2024-03-17T05:47:41;22.20;70.10
39665;DHT22;26679;50.872;4.332;2024-03-17T05:50:07;22.20;70.10
39665;DHT22;26679;50.872;4.332;2024-03-17T05:52:32;22.20;70.10
39665;DHT22;26679;50.872;4.332;2024-03-17T05:54:58;22.20;70.10
39665;DHT22;26679;50.872;4.332;2024-03-17T05:57:23;22.20;70.00
39665;DHT22;26679;50.872;4.332;2024-03-17T05:59:49;22.20;70.00
39665;DHT22;26679;50.872;4.332;2024-03-17T06:02:15;22.10;70.00
39665;DHT22;26679;50.872;4.332;2024-03-17T06:04:41;22.20;70.00
39665;DHT22;26679;50.872;4.332;2024-03-17T06:07:06;22.20;70.10
39665;DHT22;26679;50.872;4.332;2024-03-17T06:09:32;22.20;70.00
39665;DHT22;26679;50.872;4.332;2024-03-17T06:11:57;22.20;70.00
39665;DHT22;26679;50.872;4.332;2024-03-17T06:14:22;22.20;70.00
39665;DHT22;26679;50.872;4.332;2024-03-17T06:16:48;22.20;69.90
39665;DHT22;26679;50.872;4.332;2024-03-17T06:19:14;22.20;69.90
39665;DHT22;26679;50.872;4.332;2024-03-17T06:21:40;22.30;70.00
39665;DHT22;26679;50.872;4.332;2024-03-17T06:24:05;22.20;69.90
39665;DHT22;26679;50.872;4.332;2024-03-17T06:26:32;22.20;69.90
39665;DHT22;26679;50.872;4.332;2024-03-17T06:29:00;22.30;70.00
39665;DHT22;26679;50.872;4.332;2024-03-17T06:31:25;22.20;69.90
39665;DHT22;26679;50.872;4.332;2024-03-17T06:33:51;22.30;69.90
39665;DHT22;26679;50.872;4.332;2024-03-17T06:36:16;22.30;69.90
39665;DHT22;26679;50.872;4.332;2024-03-17T06:38:42;22.30;69.90
39665;DHT22;26679;50.872;4.332;2024-03-17T06:41:09;22.30;69.80
39665;DHT22;26679;50.872;4.332;2024-03-17T06:43:34;22.30;69.80
39665;DHT22;26679;50.872;4.332;2024-03-17T06:46:00;22.30;69.80
39665;DHT22;26679;50.872;4.332;2024-03-17T06:48:26;22.40;69.80
39665;DHT22;26679;50.872;4.332;2024-03-17T06:50:52;22.40;69.70
39665;DHT22;26679;50.872;4.332;2024-03-17T06:53:19;22.40;69.70
39665;DHT22;26679;50.872;4.332;2024-03-17T06:55:52;22.40;69.70
39665;DHT22;26679;50.872;4.332;2024-03-17T06:58:17;22.50;69.70
39665;DHT22;26679;50.872;4.332;2024-03-17T07:00:51;22.40;69.60
39665;DHT22;26679;50.872;4.332;2024-03-17T07:03:17;22.40;69.60
39665;DHT22;26679;50.872;4.332;2024-03-17T07:05:42;22.50;69.60
39665;DHT22;26679;50.872;4.332;2024-03-17T07:08:08;22.40;69.60
39665;DHT22;26679;50.872;4.332;2024-03-17T07:10:33;22.50;69.60
39665;DHT22;26679;50.872;4.332;2024-03-17T07:12:59;22.50;69.60
39665;DHT22;26679;50.872;4.332;2024-03-17T07:15:24;22.50;69.60
39665;DHT22;26679;50.872;4.332;2024-03-17T07:17:50;22.50;69.60
39665;DHT22;26679;50.872;4.332;2024-03-17T07:20:15;22.50;69.60
39665;DHT22;26679;50.872;4.332;2024-03-17T07:22:41;22.50;69.50
39665;DHT22;26679;50.872;4.332;2024-03-17T07:25:07;22.50;69.60
39665;DHT22;26679;50.872;4.332;2024-03-17T07:27:32;22.50;69.50
39665;DHT22;26679;50.872;4.332;2024-03-17T07:29:58;22.50;69.60
39665;DHT22;26679;50.872;4.332;2024-03-17T07:32:23;22.50;69.50
39665;DHT22;26679;50.872;4.332;2024-03-17T07:34:49;22.60;69.50
39665;DHT22;26679;50.872;4.332;2024-03-17T07:37:15;22.60;69.50
39665;DHT22;26679;50.872;4.332;2024-03-17T07:39:40;22.60;69.40
39665;DHT22;26679;50.872;4.332;2024-03-17T07:42:06;22.70;69.40
39665;DHT22;26679;50.872;4.332;2024-03-17T07:44:32;22.70;69.30
39665;DHT22;26679;50.872;4.332;2024-03-17T07:47:01;22.70;69.30
39665;DHT22;26679;50.872;4.332;2024-03-17T07:49:26;22.70;69.20
39665;DHT22;26679;50.872;4.332;2024-03-17T07:51:52;22.70;69.20
39665;DHT22;26679;50.872;4.332;2024-03-17T07:54:17;22.80;69.20
39665;DHT22;26679;50.872;4.332;2024-03-17T07:56:44;22.80;69.20
39665;DHT22;26679;50.872;4.332;2024-03-17T07:59:11;22.80;69.10
39665;DHT22;26679;50.872;4.332;2024-03-17T08:01:39;22.80;69.10
39665;DHT22;26679;50.872;4.332;2024-03-17T08:04:04;22.90;69.10
39665;DHT22;26679;50.872;4.332;2024-03-17T08:06:30;22.90;69.10
39665;DHT22;26679;50.872;4.332;2024-03-17T08:08:55;22.90;69.00
39665;DHT22;26679;50.872;4.332;2024-03-17T08:11:22;22.90;69.10
39665;DHT22;26679;50.872;4.332;2024-03-17T08:13:47;22.90;69.10
39665;DHT22;26679;50.872;4.332;2024-03-17T08:16:13;22.90;69.10
39665;DHT22;26679;50.872;4.332;2024-03-17T08:18:39;22.90;69.10
39665;DHT22;26679;50.872;4.332;2024-03-17T08:21:05;22.90;69.10
39665;DHT22;26679;50.872;4.332;2024-03-17T08:23:32;22.90;69.10
39665;DHT22;26679;50.872;4.332;2024-03-17T08:25:59;22.90;69.10
39665;DHT22;26679;50.872;4.332;2024-03-17T08:28:25;22.90;69.10
39665;DHT22;26679;50.872;4.332;2024-03-17T08:30:54;22.90;69.10
39665;DHT22;26679;50.872;4.332;2024-03-17T08:33:20;22.80;69.10
39665;DHT22;26679;50.872;4.332;2024-03-17T08:35:59;22.80;69.10
39665;DHT22;26679;50.872;4.332;2024-03-17T08:38:25;22.80;69.10
39665;DHT22;26679;50.872;4.332;2024-03-17T08:40:51;22.80;69.10
39665;DHT22;26679;50.872;4.332;2024-03-17T08:43:16;22.80;69.10
39665;DHT22;26679;50.872;4.332;2024-03-17T08:45:42;22.80;69.20
39665;DHT22;26679;50.872;4.332;2024-03-17T08:48:08;22.80;69.80
39665;DHT22;26679;50.872;4.332;2024-03-17T08:50:35;22.80;69.30
39665;DHT22;26679;50.872;4.332;2024-03-17T08:53:01;22.80;69.30
39665;DHT22;26679;50.872;4.332;2024-03-17T08:55:27;22.80;69.20
39665;DHT22;26679;50.872;4.332;2024-03-17T08:57:53;22.90;69.20
39665;DHT22;26679;50.872;4.332;2024-03-17T09:00:18;22.90;69.10
39665;DHT22;26679;50.872;4.332;2024-03-17T09:02:43;23.00;69.10
39665;DHT22;26679;50.872;4.332;2024-03-17T09:05:09;23.00;69.10
39665;DHT22;26679;50.872;4.332;2024-03-17T09:07:34;23.10;69.00
39665;DHT22;26679;50.872;4.332;2024-03-17T09:10:00;23.10;69.00
39665;DHT22;26679;50.872;4.332;2024-03-17T09:12:26;23.10;69.00
39665;DHT22;26679;50.872;4.332;2024-03-17T09:14:52;23.20;69.00
39665;DHT22;26679;50.872;4.332;2024-03-17T09:17:18;23.20;68.90
39665;DHT22;26679;50.872;4.332;2024-03-17T09:19:46;23.10;68.80
39665;DHT22;26679;50.872;4.332;2024-03-17T09:22:15;23.10;68.80
39665;DHT22;26679;50.872;4.332;2024-03-17T09:24:41;23.10;68.90
39665;DHT22;26679;50.872;4.332;2024-03-17T09:27:06;23.00;68.90
39665;DHT22;26679;50.872;4.332;2024-03-17T09:29:32;23.00;68.90
39665;DHT22;26679;50.872;4.332;2024-03-17T09:31:58;23.00;69.00
39665;DHT22;26679;50.872;4.332;2024-03-17T09:34:24;22.90;69.00
39665;DHT22;26679;50.872;4.332;2024-03-17T09:36:49;22.80;69.00
39665;DHT22;26679;50.872;4.332;2024-03-17T09:39:15;22.80;69.10
39665;DHT22;26679;50.872;4.332;2024-03-17T09:41:41;22.80;69.20
39665;DHT22;26679;50.872;4.332;2024-03-17T09:44:10;22.80;69.20
39665;DHT22;26679;50.872;4.332;2024-03-17T09:46:36;22.70;69.20
39665;DHT22;26679;50.872;4.332;2024-03-17T09:49:02;22.80;69.30
39665;DHT22;26679;50.872;4.332;2024-03-17T09:51:27;22.70;69.30
39665;DHT22;26679;50.872;4.332;2024-03-17T09:53:52;22.70;69.40
39665;DHT22;26679;50.872;4.332;2024-03-17T09:56:21;22.80;69.40
39665;DHT22;26679;50.872;4.332;2024-03-17T09:58:50;22.70;69.40
39665;DHT22;26679;50.872;4.332;2024-03-17T10:01:16;22.70;69.40
39665;DHT22;26679;50.872;4.332;2024-03-17T10:03:51;22.70;69.40
39665;DHT22;26679;50.872;4.332;2024-03-17T10:06:18;22.70;69.40
39665;DHT22;26679;50.872;4.332;2024-03-17T10:11:10;22.70;69.50
39665;DHT22;26679;50.872;4.332;2024-03-17T10:13:36;22.80;69.50
39665;DHT22;26679;50.872;4.332;2024-03-17T10:16:02;22.80;69.50
39665;DHT22;26679;50.872;4.332;2024-03-17T10:18:27;22.80;69.50
39665;DHT22;26679;50.872;4.332;2024-03-17T10:20:53;22.80;69.40
39665;DHT22;26679;50.872;4.332;2024-03-17T10:23:21;22.80;69.40
39665;DHT22;26679;50.872;4.332;2024-03-17T10:25:47;22.80;69.40
39665;DHT22;26679;50.872;4.332;2024-03-17T10:28:14;22.90;69.40
39665;DHT22;26679;50.872;4.332;2024-03-17T10:30:41;22.90;69.40
39665;DHT22;26679;50.872;4.332;2024-03-17T10:33:07;23.00;69.40
39665;DHT22;26679;50.872;4.332;2024-03-17T10:35:50;23.00;69.30
39665;DHT22;26679;50.872;4.332;2024-03-17T10:38:23;23.00;69.30
39665;DHT22;26679;50.872;4.332;2024-03-17T10:40:48;23.00;69.30
39665;DHT22;26679;50.872;4.332;2024-03-17T10:43:13;23.00;69.30
39665;DHT22;26679;50.872;4.332;2024-03-17T10:45:39;23.00;69.30
39665;DHT22;26679;50.872;4.332;2024-03-17T10:48:07;23.00;69.30
39665;DHT22;26679;50.872;4.332;2024-03-17T10:50:37;23.00;69.30
39665;DHT22;26679;50.872;4.332;2024-03-17T10:53:06;23.00;69.30
39665;DHT22;26679;50.872;4.332;2024-03-17T10:55:42;23.10;69.90
39665;DHT22;26679;50.872;4.332;2024-03-17T10:58:13;23.10;69.30
39665;DHT22;26679;50.872;4.332;2024-03-17T11:00:44;23.10;69.30
39665;DHT22;26679;50.872;4.332;2024-03-17T11:03:12;23.10;69.30
39665;DHT22;26679;50.872;4.332;2024-03-17T11:05:38;23.20;69.30
39665;DHT22;26679;50.872;4.332;2024-03-17T11:08:04;23.30;69.20
39665;DHT22;26679;50.872;4.332;2024-03-17T11:10:32;23.40;69.10
39665;DHT22;26679;50.872;4.332;2024-03-17T11:13:01;23.60;69.10
39665;DHT22;26679;50.872;4.332;2024-03-17T11:20:34;24.60;68.10
39665;DHT22;26679;50.872;4.332;2024-03-17T11:23:01;25.00;67.40
39665;DHT22;26679;50.872;4.332;2024-03-17T11:33:01;25.60;66.40
39665;DHT22;26679;50.872;4.332;2024-03-17T11:35:26;25.80;66.10
39665;DHT22;26679;50.872;4.332;2024-03-17T11:37:52;25.80;66.00
39665;DHT22;26679;50.872;4.332;2024-03-17T11:40:25;25.70;66.00
39665;DHT22;26679;50.872;4.332;2024-03-17T11:43:01;25.70;66.10
39665;DHT22;26679;50.872;4.332;2024-03-17T11:45:27;25.70;66.10
39665;DHT22;26679;50.872;4.332;2024-03-17T11:47:52;25.80;66.10
39665;DHT22;26679;50.872;4.332;2024-03-17T11:50:18;25.90;66.00
39665;DHT22;26679;50.872;4.332;2024-03-17T11:52:44;25.90;65.80
39665;DHT22;26679;50.872;4.332;2024-03-17T11:55:17;25.90;65.80
39665;DHT22;26679;50.872;4.332;2024-03-17T11:57:43;26.00;65.80
39665;DHT22;26679;50.872;4.332;2024-03-17T12:00:23;25.90;65.90
39665;DHT22;26679;50.872;4.332;2024-03-17T12:02:49;25.80;65.90
39665;DHT22;26679;50.872;4.332;2024-03-17T12:05:15;25.80;65.90
39665;DHT22;26679;50.872;4.332;2024-03-17T12:07:43;25.90;65.90
39665;DHT22;26679;50.872;4.332;2024-03-17T12:10:10;26.20;65.70
39665;DHT22;26679;50.872;4.332;2024-03-17T12:12:36;26.20;65.50
39665;DHT22;26679;50.872;4.332;2024-03-17T12:15:02;26.30;65.50
39665;DHT22;26679;50.872;4.332;2024-03-17T12:17:28;26.50;65.40
39665;DHT22;26679;50.872;4.332;2024-03-17T12:19:54;26.60;65.10
39665;DHT22;26679;50.872;4.332;2024-03-17T12:22:21;26.60;65.10
39665;DHT22;26679;50.872;4.332;2024-03-17T12:24:48;26.70;65.00
39665;DHT22;26679;50.872;4.332;2024-03-17T12:27:17;26.90;64.90
39665;DHT22;26679;50.872;4.332;2024-03-17T12:29:43;26.80;64.80
39665;DHT22;26679;50.872;4.332;2024-03-17T12:34:35;26.90;64.90
39665;DHT22;26679;50.872;4.332;2024-03-17T12:37:01;26.90;64.80
39665;DHT22;26679;50.872;4.332;2024-03-17T12:39:30;26.70;64.80
39665;DHT22;26679;50.872;4.332;2024-03-17T12:42:10;26.50;64.90
39665;DHT22;26679;50.872;4.332;2024-03-17T12:44:36;26.30;65.10
39665;DHT22;26679;50.872;4.332;2024-03-17T12:47:07;26.10;65.40
39665;DHT22;26679;50.872;4.332;2024-03-17T12:49:33;25.90;65.60
39665;DHT22;26679;50.872;4.332;2024-03-17T12:52:02;25.70;65.70
39665;DHT22;26679;50.872;4.332;2024-03-17T12:54:28;25.60;66.00
39665;DHT22;26679;50.872;4.332;2024-03-17T12:57:06;25.50;66.20
39665;DHT22;26679;50.872;4.332;2024-03-17T12:59:50;25.50;66.40
39665;DHT22;26679;50.872;4.332;2024-03-17T13:02:40;25.50;66.40
39665;DHT22;26679;50.872;4.332;2024-03-17T13:05:16;25.40;66.40
39665;DHT22;26679;50.872;4.332;2024-03-17T13:07:42;25.30;66.40
39665;DHT22;26679;50.872;4.332;2024-03-17T13:10:08;25.20;66.60
39665;DHT22;26679;50.872;4.332;2024-03-17T13:12:34;25.20;66.80
39665;DHT22;26679;50.872;4.332;2024-03-17T13:15:00;25.20;67.00
39665;DHT22;26679;50.872;4.332;2024-03-17T13:17:25;25.00;67.00
39665;DHT22;26679;50.872;4.332;2024-03-17T13:19:51;24.90;67.10
39665;DHT22;26679;50.872;4.332;2024-03-17T13:22:16;24.80;67.10
39665;DHT22;26679;50.872;4.332;2024-03-17T13:24:42;24.70;67.30
39665;DHT22;26679;50.872;4.332;2024-03-17T13:27:07;24.60;67.40
39665;DHT22;26679;50.872;4.332;2024-03-17T13:29:36;24.60;67.60
39665;DHT22;26679;50.872;4.332;2024-03-17T13:32:02;24.60;67.70
39665;DHT22;26679;50.872;4.332;2024-03-17T13:34:28;24.50;67.80
39665;DHT22;26679;50.872;4.332;2024-03-17T13:36:54;24.50;67.80
39665;DHT22;26679;50.872;4.332;2024-03-17T13:39:19;24.50;67.80
39665;DHT22;26679;50.872;4.332;2024-03-17T13:41:47;24.40;67.90
39665;DHT22;26679;50.872;4.332;2024-03-17T13:44:13;24.40;68.00
39665;DHT22;26679;50.872;4.332;2024-03-17T13:46:38;24.30;68.00
39665;DHT22;26679;50.872;4.332;2024-03-17T13:49:07;24.30;68.10
39665;DHT22;26679;50.872;4.332;2024-03-17T13:51:33;24.30;68.20
39665;DHT22;26679;50.872;4.332;2024-03-17T13:54:00;24.20;68.20
39665;DHT22;26679;50.872;4.332;2024-03-17T13:56:26;24.30;68.40
39665;DHT22;26679;50.872;4.332;2024-03-17T13:58:52;24.20;68.30
39665;DHT22;26679;50.872;4.332;2024-03-17T14:01:17;24.20;68.40
39665;DHT22;26679;50.872;4.332;2024-03-17T14:03:43;24.20;69.00
39665;DHT22;26679;50.872;4.332;2024-03-17T14:06:09;24.20;68.50
39665;DHT22;26679;50.872;4.332;2024-03-17T14:08:34;24.10;68.60
39665;DHT22;26679;50.872;4.332;2024-03-17T14:11:03;24.00;68.70
39665;DHT22;26679;50.872;4.332;2024-03-17T14:13:29;24.00;68.80
39665;DHT22;26679;50.872;4.332;2024-03-17T14:15:55;23.90;68.90
39665;DHT22;26679;50.872;4.332;2024-03-17T14:18:20;23.80;68.90
39665;DHT22;26679;50.872;4.332;2024-03-17T14:20:46;23.80;69.10
39665;DHT22;26679;50.872;4.332;2024-03-17T14:23:12;23.70;69.10
39665;DHT22;26679;50.872;4.332;2024-03-17T14:25:37;23.70;69.20
39665;DHT22;26679;50.872;4.332;2024-03-17T14:28:04;23.60;69.20
39665;DHT22;26679;50.872;4.332;2024-03-17T14:30:30;23.60;69.40
39665;DHT22;26679;50.872;4.332;2024-03-17T14:32:56;23.60;69.50
39665;DHT22;26679;50.872;4.332;2024-03-17T14:35:21;23.60;69.60
39665;DHT22;26679;50.872;4.332;2024-03-17T14:37:47;23.60;69.60
39665;DHT22;26679;50.872;4.332;2024-03-17T14:40:14;23.60;69.60
39665;DHT22;26679;50.872;4.332;2024-03-17T14:42:45;23.60;69.60
39665;DHT22;26679;50.872;4.332;2024-03-17T14:45:11;23.70;69.60
39665;DHT22;26679;50.872;4.332;2024-03-17T14:47:36;23.70;69.60
39665;DHT22;26679;50.872;4.332;2024-03-17T14:50:02;23.80;69.50
39665;DHT22;26679;50.872;4.332;2024-03-17T14:52:27;23.80;69.50
39665;DHT22;26679;50.872;4.332;2024-03-17T14:54:52;23.70;69.50
39665;DHT22;26679;50.872;4.332;2024-03-17T14:57:21;23.70;69.60
39665;DHT22;26679;50.872;4.332;2024-03-17T14:59:47;23.60;69.60
39665;DHT22;26679;50.872;4.332;2024-03-17T15:02:12;23.60;69.70
39665;DHT22;26679;50.872;4.332;2024-03-17T15:04:38;23.50;69.80
39665;DHT22;26679;50.872;4.332;2024-03-17T15:07:03;23.40;69.90
39665;DHT22;26679;50.872;4.332;2024-03-17T15:09:29;23.40;70.00
39665;DHT22;26679;50.872;4.332;2024-03-17T15:11:54;23.40;70.10
39665;DHT22;26679;50.872;4.332;2024-03-17T15:14:20;23.40;70.20
39665;DHT22;26679;50.872;4.332;2024-03-17T15:16:45;23.40;70.30
39665;DHT22;26679;50.872;4.332;2024-03-17T15:19:11;23.40;70.30
39665;DHT22;26679;50.872;4.332;2024-03-17T15:21:37;23.40;70.40
39665;DHT22;26679;50.872;4.332;2024-03-17T15:24:02;23.40;70.40
39665;DHT22;26679;50.872;4.332;2024-03-17T15:26:28;23.40;70.50
39665;DHT22;26679;50.872;4.332;2024-03-17T15:28:54;23.30;70.60
39665;DHT22;26679;50.872;4.332;2024-03-17T15:31:20;23.20;70.60
39665;DHT22;26679;50.872;4.332;2024-03-17T15:33:49;23.20;70.80
39665;DHT22;26679;50.872;4.332;2024-03-17T15:36:16;23.20;70.90
39665;DHT22;26679;50.872;4.332;2024-03-17T15:38:41;23.10;70.90
39665;DHT22;26679;50.872;4.332;2024-03-17T15:41:09;23.10;70.90
39665;DHT22;26679;50.872;4.332;2024-03-17T15:43:38;23.10;71.00